createdAt,value
2023-03-31T00:00:23.915Z,97985.25
2023-03-31T00:05:48.028Z,97981.91
2023-03-31T00:11:10.038Z,97981.66
2023-03-31T00:16:31.833Z,97958.91
2023-03-31T00:21:54.493Z,97946.69
2023-03-31T00:27:16.575Z,97940.38
2023-03-31T00:32:38.429Z,97934.06
2023-03-31T00:38:00.221Z,97927.38
2023-03-31T00:43:34.116Z,97921.69
2023-03-31T00:48:57.989Z,97909.81
2023-03-31T00:54:21.502Z,97906.91
2023-03-31T00:59:58.891Z,97904.94
2023-03-31T01:05:25.927Z,97902.56
2023-03-31T01:10:52.040Z,97895.19
2023-03-31T01:16:13.807Z,97883.16
2023-03-31T01:22:13.149Z,97864.72
2023-03-31T01:28:01.715Z,97842.56
2023-03-31T01:33:46.786Z,97837.06
2023-03-31T01:39:14.203Z,97848.50
2023-03-31T01:44:57.055Z,97850.88
2023-03-31T01:50:27.789Z,97860.06
2023-03-31T01:56:18.534Z,97863.75
2023-03-31T02:01:56.280Z,97873.78
2023-03-31T02:07:27.570Z,97866.75
2023-03-31T02:12:51.563Z,97857.69
2023-03-31T02:18:18.572Z,97857.34
2023-03-31T02:23:41.166Z,97838.72
2023-03-31T02:29:03.300Z,97834.78
2023-03-31T02:34:25.090Z,97817.00
2023-03-31T02:39:50.372Z,97798.28
2023-03-31T02:45:47.545Z,97762.44
2023-03-31T02:51:09.411Z,97739.22
2023-03-31T02:56:58.605Z,97729.34
2023-03-31T03:02:42.062Z,97714.59
2023-03-31T03:08:18.064Z,97693.03
2023-03-31T03:13:51.781Z,97674.09
2023-03-31T03:19:20.491Z,97661.13
2023-03-31T03:24:42.585Z,97639.09
2023-03-31T03:30:06.982Z,97615.06
2023-03-31T03:35:28.998Z,97605.25
2023-03-31T03:40:53.910Z,97592.66
2023-03-31T03:46:15.809Z,97591.34
2023-03-31T03:51:37.603Z,97573.88
2023-03-31T03:56:59.480Z,97560.53
2023-03-31T04:02:21.352Z,97537.19
2023-03-31T04:07:43.178Z,97522.09
2023-03-31T04:13:04.930Z,97508.41
2023-03-31T04:18:26.696Z,97496.53
2023-03-31T04:23:50.282Z,97482.97
2023-03-31T04:29:13.925Z,97456.50
2023-03-31T04:34:36.041Z,97455.78
2023-03-31T04:39:59.321Z,97468.41
2023-03-31T04:45:21.126Z,97468.59
2023-03-31T04:50:42.943Z,97444.91
2023-03-31T04:56:06.007Z,97441.94
2023-03-31T05:01:28.001Z,97435.44
2023-03-31T05:06:50.357Z,97431.66
2023-03-31T05:12:12.089Z,97433.19
2023-03-31T05:17:35.596Z,97447.84
2023-03-31T05:22:57.368Z,97473.59
2023-03-31T05:28:19.106Z,97494.19
2023-03-31T05:33:42.000Z,97479.34
2023-03-31T05:39:06.190Z,97489.47
2023-03-31T05:44:27.910Z,97476.38
2023-03-31T05:49:49.651Z,97467.00
2023-03-31T05:55:11.542Z,97436.44
2023-03-31T06:00:33.260Z,97423.47
2023-03-31T06:05:55.750Z,97415.16
2023-03-31T06:11:20.498Z,97404.13
2023-03-31T06:16:42.370Z,97394.97
2023-03-31T06:22:04.244Z,97388.31
2023-03-31T06:27:26.079Z,97374.28
2023-03-31T06:32:47.856Z,97368.59
2023-03-31T06:38:09.661Z,97381.56
2023-03-31T06:43:31.419Z,97374.66
2023-03-31T06:48:54.329Z,97385.34
2023-03-31T06:54:16.066Z,97388.91
2023-03-31T06:59:37.804Z,97418.50
2023-03-31T07:04:59.779Z,97448.56
2023-03-31T07:10:23.019Z,97446.78
2023-03-31T07:15:48.194Z,97416.22
2023-03-31T07:21:10.333Z,97349.84
2023-03-31T07:26:32.482Z,97333.66
2023-03-31T07:31:54.260Z,97328.88
2023-03-31T07:37:16.085Z,97340.84
2023-03-31T07:42:38.059Z,97352.16
2023-03-31T07:48:00.296Z,97335.41
2023-03-31T07:53:22.172Z,97327.34
2023-03-31T07:58:44.258Z,97327.31
2023-03-31T08:04:06.092Z,97323.16
2023-03-31T08:09:27.889Z,97330.88
2023-03-31T08:14:49.614Z,97320.84
2023-03-31T08:20:12.027Z,97319.81
2023-03-31T08:25:33.734Z,97319.53
2023-03-31T08:30:56.152Z,97307.22
2023-03-31T08:36:17.953Z,97297.03
2023-03-31T08:42:00.781Z,97289.41
2023-03-31T08:47:26.725Z,97287.44
2023-03-31T08:52:54.983Z,97283.84
2023-03-31T08:58:43.362Z,97285.06
2023-03-31T09:04:29.824Z,97271.59
2023-03-31T09:10:20.189Z,97263.63
2023-03-31T09:16:05.480Z,97274.72
2023-03-31T09:21:51.937Z,97253.19
2023-03-31T09:27:15.008Z,97262.88
2023-03-31T09:32:39.250Z,97261.09
2023-03-31T09:38:01.455Z,97276.16
2023-03-31T09:43:26.963Z,97276.56
2023-03-31T09:48:55.104Z,97277.25
2023-03-31T09:54:25.838Z,97254.91
2023-03-31T09:59:51.631Z,97252.78
2023-03-31T10:05:22.637Z,97228.06
2023-03-31T10:10:48.152Z,97230.34
2023-03-31T10:16:15.101Z,97195.47
2023-03-31T10:21:38.652Z,97200.91
2023-03-31T10:27:00.522Z,97205.59
2023-03-31T10:32:28.761Z,97191.09
2023-03-31T10:37:57.165Z,97188.19
2023-03-31T10:43:21.871Z,97181.97
2023-03-31T10:48:45.059Z,97137.56
2023-03-31T10:54:09.075Z,97141.69
2023-03-31T10:59:41.693Z,97148.09
2023-03-31T11:05:15.454Z,97139.25
2023-03-31T11:10:41.930Z,97140.50
2023-03-31T11:16:39.343Z,97133.41
2023-03-31T11:22:19.451Z,97230.97
2023-03-31T11:28:18.220Z,97304.03
2023-03-31T11:34:06.254Z,97298.63
2023-03-31T11:39:46.064Z,97291.06
2023-03-31T11:45:22.616Z,97298.78
2023-03-31T11:50:47.281Z,97274.22
2023-03-31T11:56:12.192Z,97275.22
2023-03-31T12:01:44.551Z,97255.22
2023-03-31T12:07:29.487Z,97243.63
2023-03-31T12:13:03.201Z,97236.09
2023-03-31T12:18:28.306Z,97225.72
2023-03-31T12:23:50.240Z,97226.53
2023-03-31T12:29:32.976Z,97222.78
2023-03-31T12:35:02.129Z,97186.56
2023-03-31T12:40:41.751Z,97182.81
2023-03-31T12:46:18.679Z,97166.28
2023-03-31T12:52:04.293Z,97168.84
2023-03-31T12:57:26.879Z,97144.09
2023-03-31T13:02:50.147Z,97148.75
2023-03-31T13:08:50.626Z,97162.03
2023-03-31T13:14:28.744Z,97158.50
2023-03-31T13:19:51.712Z,97185.09
2023-03-31T13:25:35.526Z,97171.41
2023-03-31T13:31:09.400Z,97189.56
2023-03-31T13:36:34.476Z,97165.00
2023-03-31T13:42:36.229Z,97196.00
2023-03-31T13:48:14.940Z,97189.53
2023-03-31T13:53:45.504Z,97194.69
2023-03-31T13:59:14.962Z,97175.50
2023-03-31T14:04:54.824Z,97161.59
2023-03-31T14:10:49.324Z,97125.63
2023-03-31T14:16:14.188Z,97130.13
2023-03-31T14:21:59.646Z,97136.13
2023-03-31T14:27:50.410Z,97141.91
2023-03-31T14:33:26.886Z,97145.91
2023-03-31T14:38:48.709Z,97138.34
2023-03-31T14:44:15.900Z,97121.19
2023-03-31T14:49:39.114Z,97123.94
2023-03-31T14:55:01.329Z,97134.56
2023-03-31T15:00:30.725Z,97133.31
2023-03-31T15:05:57.462Z,97125.59
2023-03-31T15:11:21.935Z,97110.53
2023-03-31T15:16:45.186Z,97111.78
2023-03-31T15:22:18.980Z,97087.56
2023-03-31T15:27:45.181Z,97092.31
2023-03-31T15:38:59.052Z,97102.38
2023-03-31T15:44:43.573Z,97109.53
2023-03-31T15:50:08.203Z,97114.53
2023-03-31T15:55:39.250Z,97112.03
2023-03-31T16:01:05.593Z,97102.38
2023-03-31T16:06:43.869Z,97108.75
2023-03-31T16:12:14.855Z,97128.06
2023-03-31T16:17:42.999Z,97127.81
2023-03-31T16:23:16.271Z,97166.75
2023-03-31T16:28:38.528Z,97169.69
2023-03-31T16:34:01.161Z,97170.91
2023-03-31T16:39:22.869Z,97150.47
2023-03-31T16:44:52.904Z,97153.53
2023-03-31T16:50:22.386Z,97140.13
2023-03-31T16:55:44.511Z,97129.09
2023-03-31T17:01:07.805Z,97123.94
2023-03-31T17:06:29.606Z,97123.41
2023-03-31T17:11:51.398Z,97117.88
2023-03-31T17:17:14.756Z,97133.88
2023-03-31T17:22:38.456Z,97145.88
2023-03-31T17:28:01.878Z,97155.81
2023-03-31T17:33:23.727Z,97159.69
2023-03-31T17:38:45.555Z,97169.31
2023-03-31T17:44:08.719Z,97177.44
2023-03-31T17:49:30.691Z,97167.38
2023-03-31T17:54:53.297Z,97180.91
2023-03-31T18:00:16.535Z,97199.88
2023-03-31T18:05:39.274Z,97202.50
2023-03-31T18:11:02.842Z,97223.72
2023-03-31T18:16:24.806Z,97246.63
2023-03-31T18:21:46.680Z,97222.75
2023-03-31T18:27:08.537Z,97203.72
2023-03-31T18:32:30.835Z,97197.13
2023-03-31T18:37:53.426Z,97197.16
2023-03-31T18:43:15.507Z,97191.34
2023-03-31T18:48:38.437Z,97190.59
2023-03-31T18:54:00.207Z,97178.88
2023-03-31T18:59:22.002Z,97184.28
2023-03-31T19:04:48.024Z,97187.66
2023-03-31T19:10:10.214Z,97200.94
2023-03-31T19:15:33.182Z,97190.22
2023-03-31T19:20:55.572Z,97193.34
2023-03-31T19:26:19.466Z,97201.88
2023-03-31T19:31:41.516Z,97195.00
2023-03-31T19:37:03.860Z,97195.00
2023-03-31T19:42:25.687Z,97185.47
2023-03-31T19:47:47.589Z,97196.09
2023-03-31T19:53:09.402Z,97191.88
2023-03-31T19:58:35.068Z,97196.97
2023-03-31T20:03:57.175Z,97194.94
2023-03-31T20:09:19.169Z,97198.50
2023-03-31T20:14:40.984Z,97202.03
2023-03-31T20:20:03.130Z,97199.84
2023-03-31T20:25:24.910Z,97215.13
2023-03-31T20:30:46.648Z,97208.22
2023-03-31T20:36:11.377Z,97217.16
2023-03-31T20:41:35.173Z,97212.03
2023-03-31T20:46:59.025Z,97219.75
2023-03-31T20:52:20.924Z,97211.78
2023-03-31T20:57:42.666Z,97222.66
2023-03-31T21:03:04.537Z,97224.81
2023-03-31T21:08:26.344Z,97223.16
2023-03-31T21:13:48.763Z,97228.88
2023-03-31T21:19:11.067Z,97226.19
2023-03-31T21:24:32.832Z,97227.34
2023-03-31T21:29:54.786Z,97231.19
2023-03-31T21:35:17.818Z,97240.56
2023-03-31T21:40:39.610Z,97247.88
2023-03-31T21:46:01.998Z,97246.66
2023-03-31T21:51:24.759Z,97242.25
2023-03-31T21:56:46.571Z,97258.09
2023-03-31T22:02:08.378Z,97262.72
2023-03-31T22:07:30.536Z,97265.09
2023-03-31T22:12:52.343Z,97257.03
2023-03-31T22:18:14.239Z,97255.84
2023-03-31T22:23:36.137Z,97258.31
2023-03-31T22:28:58.156Z,97271.06
2023-03-31T22:34:19.993Z,97263.09
2023-03-31T22:39:42.469Z,97266.72
2023-03-31T22:45:04.655Z,97265.75
2023-03-31T22:50:27.207Z,97266.97
2023-03-31T22:55:53.815Z,97259.63
2023-03-31T23:01:19.352Z,97272.94
2023-03-31T23:06:41.156Z,97264.38
2023-03-31T23:12:03.023Z,97273.19
2023-03-31T23:17:24.792Z,97264.59
2023-03-31T23:22:46.588Z,97261.78
2023-03-31T23:28:08.447Z,97257.28
2023-03-31T23:33:30.565Z,97271.53
2023-03-31T23:38:54.106Z,97262.63
2023-03-31T23:44:16.701Z,97258.94
2023-03-31T23:49:38.441Z,97254.53
2023-03-31T23:55:00.343Z,97262.25
